createdAt,value
2023-04-10T00:02:25.870Z,44.23
2023-04-10T00:04:53.010Z,44.23
2023-04-10T00:07:19.895Z,44.20
2023-04-10T00:09:46.604Z,44.22
2023-04-10T00:12:14.553Z,44.44
2023-04-10T00:14:41.484Z,44.46
2023-04-10T00:17:08.216Z,44.63
2023-04-10T00:19:34.917Z,44.51
2023-04-10T00:22:01.669Z,44.35
2023-04-10T00:24:28.380Z,44.55
2023-04-10T00:26:56.853Z,44.87
2023-04-10T00:29:24.395Z,44.59
2023-04-10T00:31:51.254Z,44.53
2023-04-10T00:34:17.991Z,45.23
2023-04-10T00:36:46.789Z,44.79
2023-04-10T00:39:14.194Z,44.80
2023-04-10T00:41:41.136Z,44.80
2023-04-10T00:44:08.701Z,44.58
2023-04-10T00:46:37.830Z,44.60
2023-04-10T00:49:04.847Z,44.39
2023-04-10T00:51:33.155Z,44.30
2023-04-10T00:54:02.218Z,44.31
2023-04-10T00:56:32.170Z,44.03
2023-04-10T00:58:58.932Z,44.10
2023-04-10T01:01:26.232Z,44.22
2023-04-10T01:03:54.671Z,44.00
2023-04-10T01:06:21.643Z,43.97
2023-04-10T01:09:03.996Z,44.36
2023-04-10T01:11:52.500Z,44.55
2023-04-10T01:14:38.047Z,45.00
2023-04-10T01:17:30.490Z,44.94
2023-04-10T01:20:31.656Z,44.61
2023-04-10T01:23:26.754Z,44.86
2023-04-10T01:26:14.110Z,44.78
2023-04-10T01:28:56.127Z,44.73
2023-04-10T01:31:38.271Z,44.77
2023-04-10T01:34:09.326Z,44.61
2023-04-10T01:36:45.187Z,45.01
2023-04-10T01:39:12.439Z,44.50
2023-04-10T01:41:43.961Z,45.04
2023-04-10T01:44:15.097Z,45.13
2023-04-10T01:46:44.679Z,45.08
2023-04-10T01:49:13.292Z,44.99
2023-04-10T01:51:40.642Z,44.87
2023-04-10T01:54:10.698Z,45.06
2023-04-10T01:56:38.485Z,45.23
2023-04-10T01:59:06.475Z,45.12
2023-04-10T02:01:33.272Z,45.12
2023-04-10T02:04:00.610Z,45.28
2023-04-10T02:06:36.531Z,45.51
2023-04-10T02:09:32.682Z,45.64
2023-04-10T02:12:04.741Z,45.71
2023-04-10T02:14:33.330Z,45.84
2023-04-10T02:17:02.640Z,45.64
2023-04-10T02:19:33.136Z,45.64
2023-04-10T02:22:00.138Z,45.84
2023-04-10T02:24:27.454Z,45.94
2023-04-10T02:26:54.182Z,46.17
2023-04-10T02:29:21.411Z,45.89
2023-04-10T02:31:49.002Z,46.13
2023-04-10T02:34:18.324Z,46.82
2023-04-10T02:36:45.148Z,46.45
2023-04-10T02:39:12.611Z,46.39
2023-04-10T02:41:47.479Z,46.58
2023-04-10T02:44:14.572Z,46.44
2023-04-10T02:46:42.146Z,46.37
2023-04-10T02:49:09.359Z,46.50
2023-04-10T02:51:36.676Z,46.64
2023-04-10T02:54:04.509Z,46.67
2023-04-10T02:56:35.874Z,46.91
2023-04-10T02:59:03.398Z,46.93
2023-04-10T03:01:31.194Z,47.16
2023-04-10T03:03:58.864Z,47.14
2023-04-10T03:06:32.902Z,47.13
2023-04-10T03:08:59.660Z,47.00
2023-04-10T03:11:27.527Z,47.34
2023-04-10T03:14:00.336Z,47.12
2023-04-10T03:16:27.121Z,47.12
2023-04-10T03:18:53.956Z,47.19
2023-04-10T03:21:21.457Z,46.83
2023-04-10T03:23:49.075Z,47.10
2023-04-10T03:26:15.851Z,46.94
2023-04-10T03:28:42.561Z,47.10
2023-04-10T03:31:12.316Z,47.02
2023-04-10T03:33:40.635Z,47.38
2023-04-10T03:36:08.141Z,47.07
2023-04-10T03:38:34.922Z,47.42
2023-04-10T03:41:02.475Z,47.30
2023-04-10T03:43:31.811Z,47.75
2023-04-10T03:46:00.124Z,47.69
2023-04-10T03:48:28.536Z,48.16
2023-04-10T03:50:58.551Z,47.96
2023-04-10T03:53:25.398Z,47.92
2023-04-10T03:55:53.902Z,47.54
2023-04-10T03:58:22.319Z,47.69
2023-04-10T04:00:49.520Z,47.83
2023-04-10T04:03:29.046Z,47.79
2023-04-10T04:05:56.247Z,47.88
2023-04-10T04:08:27.963Z,47.73
2023-04-10T04:11:08.658Z,48.10
2023-04-10T04:13:44.157Z,47.69
2023-04-10T04:16:24.580Z,47.90
2023-04-10T04:18:59.020Z,48.24
2023-04-10T04:21:40.378Z,48.11
2023-04-10T04:24:20.353Z,47.77
2023-04-10T04:26:56.411Z,47.81
2023-04-10T04:29:41.597Z,47.97
2023-04-10T04:32:16.795Z,47.99
2023-04-10T04:35:02.725Z,48.12
2023-04-10T04:37:48.293Z,48.37
2023-04-10T04:40:17.851Z,48.33
2023-04-10T04:43:07.359Z,48.57
2023-04-10T04:45:52.661Z,48.50
2023-04-10T04:48:39.571Z,48.61
2023-04-10T04:51:32.445Z,48.59
2023-04-10T04:54:05.326Z,48.63
2023-04-10T04:56:41.082Z,48.68
2023-04-10T04:59:22.661Z,48.93
2023-04-10T05:02:03.249Z,49.36
2023-04-10T05:04:42.140Z,49.10
2023-04-10T05:07:21.145Z,49.07
2023-04-10T05:10:09.162Z,48.93
2023-04-10T05:12:54.698Z,49.07
2023-04-10T05:15:25.927Z,48.99
2023-04-10T05:18:14.103Z,48.77
2023-04-10T05:21:01.222Z,48.74
2023-04-10T05:23:46.537Z,48.91
2023-04-10T05:26:42.669Z,48.97
2023-04-10T05:29:25.439Z,48.81
2023-04-10T05:32:12.546Z,48.72
2023-04-10T05:34:51.381Z,48.25
2023-04-10T05:37:34.733Z,47.92
2023-04-10T05:40:21.358Z,47.49
2023-04-10T05:42:57.634Z,46.62
2023-04-10T05:45:51.736Z,45.56
2023-04-10T05:48:39.037Z,45.22
2023-04-10T05:51:22.963Z,43.86
2023-04-10T05:54:19.327Z,43.57
2023-04-10T05:57:04.621Z,42.88
2023-04-10T05:59:33.940Z,42.69
2023-04-10T06:02:12.173Z,42.14
2023-04-10T06:04:39.617Z,41.21
2023-04-10T06:07:06.935Z,40.74
2023-04-10T06:09:33.851Z,40.06
2023-04-10T06:12:01.374Z,38.90
2023-04-10T06:14:28.221Z,38.50
2023-04-10T06:16:56.657Z,37.33
2023-04-10T06:19:23.436Z,36.99
2023-04-10T06:21:53.140Z,35.81
2023-04-10T06:24:21.082Z,35.51
2023-04-10T06:26:47.787Z,35.47
2023-04-10T06:29:14.539Z,35.16
2023-04-10T06:31:41.258Z,35.96
2023-04-10T06:34:08.436Z,34.61
2023-04-10T06:36:37.901Z,34.51
2023-04-10T06:39:06.675Z,33.25
2023-04-10T06:41:33.652Z,32.36
2023-04-10T06:44:29.336Z,31.65
2023-04-10T06:46:56.077Z,30.26
2023-04-10T06:49:23.072Z,29.56
2023-04-10T06:51:49.853Z,28.27
2023-04-10T06:54:16.700Z,28.12
2023-04-10T06:56:43.556Z,27.64
2023-04-10T06:59:10.416Z,26.63
2023-04-10T07:01:37.472Z,27.21
2023-04-10T07:04:04.439Z,26.53
2023-04-10T07:06:31.554Z,26.05
2023-04-10T07:08:58.298Z,25.47
2023-04-10T07:11:25.357Z,25.01
2023-04-10T07:13:53.914Z,24.14
2023-04-10T07:16:20.874Z,23.43
2023-04-10T07:18:47.790Z,23.90
2023-04-10T07:21:14.614Z,24.67
2023-04-10T07:23:41.405Z,25.57
2023-04-10T07:26:08.254Z,25.37
2023-04-10T07:28:35.042Z,25.26
2023-04-10T07:31:01.888Z,25.42
2023-04-10T07:33:28.702Z,24.59
2023-04-10T07:35:55.605Z,24.20
2023-04-10T07:38:24.162Z,24.13
2023-04-10T07:40:56.535Z,23.71
2023-04-10T07:43:23.412Z,23.27
2023-04-10T07:45:50.432Z,23.89
2023-04-10T07:48:17.252Z,23.59
2023-04-10T07:50:44.029Z,22.70
2023-04-10T07:53:10.948Z,22.90
2023-04-10T07:55:42.950Z,21.79
2023-04-10T07:58:10.288Z,21.93
2023-04-10T08:00:37.536Z,21.13
2023-04-10T08:03:05.688Z,21.40
2023-04-10T08:05:32.982Z,22.08
2023-04-10T08:07:59.870Z,22.22
2023-04-10T08:10:26.514Z,20.70
2023-04-10T08:12:53.249Z,19.47
2023-04-10T08:15:19.928Z,20.82
2023-04-10T08:17:46.719Z,19.54
2023-04-10T08:20:16.088Z,19.10
2023-04-10T08:22:42.748Z,18.48
2023-04-10T08:25:09.822Z,18.27
2023-04-10T08:27:36.959Z,17.46
2023-04-10T08:30:04.354Z,17.43
2023-04-10T08:32:31.236Z,17.98
2023-04-10T08:34:58.279Z,17.49
2023-04-10T08:37:26.437Z,17.58
2023-04-10T08:39:53.733Z,17.83
2023-04-10T08:42:20.645Z,18.56
2023-04-10T08:44:49.738Z,17.09
2023-04-10T08:47:20.647Z,16.26
2023-04-10T08:49:57.495Z,15.62
2023-04-10T08:52:31.236Z,15.02
2023-04-10T08:55:02.592Z,15.40
2023-04-10T08:57:29.787Z,15.87
2023-04-10T08:59:58.555Z,15.47
2023-04-10T09:02:26.345Z,14.48
2023-04-10T09:04:55.248Z,14.44
2023-04-10T09:07:23.456Z,13.88
2023-04-10T09:09:50.244Z,14.04
2023-04-10T09:12:16.970Z,13.95
2023-04-10T09:14:43.745Z,15.70
2023-04-10T09:17:20.599Z,16.66
2023-04-10T09:19:55.643Z,17.95
2023-04-10T09:22:36.222Z,17.61
2023-04-10T09:25:04.352Z,18.23
2023-04-10T09:27:35.157Z,19.20
2023-04-10T09:30:02.703Z,18.90
2023-04-10T09:32:36.738Z,19.42
2023-04-10T09:35:05.038Z,20.51
2023-04-10T09:37:36.105Z,20.65
2023-04-10T09:40:04.134Z,21.15
2023-04-10T09:42:32.939Z,21.86
2023-04-10T09:45:00.173Z,22.75
2023-04-10T09:47:28.171Z,21.46
2023-04-10T09:49:57.473Z,20.71
2023-04-10T09:52:29.714Z,20.01
2023-04-10T09:54:57.500Z,18.70
2023-04-10T09:57:26.118Z,17.65
2023-04-10T09:59:55.010Z,17.52
2023-04-10T10:02:28.773Z,16.83
2023-04-10T10:04:57.355Z,18.36
2023-04-10T10:07:24.334Z,17.50
2023-04-10T10:09:52.532Z,16.76
2023-04-10T10:12:26.431Z,14.90
2023-04-10T10:15:09.002Z,13.99
2023-04-10T10:17:49.381Z,13.84
2023-04-10T10:20:18.222Z,14.82
2023-04-10T10:22:46.477Z,15.50
2023-04-10T10:25:13.542Z,17.07
2023-04-10T10:27:41.795Z,16.41
2023-04-10T10:30:28.086Z,15.91
2023-04-10T10:32:57.589Z,17.01
2023-04-10T10:35:28.714Z,17.02
2023-04-10T10:37:59.786Z,16.67
2023-04-10T10:40:40.318Z,15.27
2023-04-10T10:43:25.777Z,15.94
2023-04-10T10:46:01.996Z,15.62
2023-04-10T10:48:28.839Z,15.51
2023-04-10T10:50:58.913Z,16.08
2023-04-10T10:53:34.710Z,16.67
2023-04-10T10:56:19.515Z,16.28
2023-04-10T10:58:47.238Z,17.23
2023-04-10T11:01:15.091Z,17.41
2023-04-10T11:03:44.414Z,17.57
2023-04-10T11:06:17.175Z,16.02
2023-04-10T11:08:48.956Z,16.18
2023-04-10T11:11:18.361Z,15.41
2023-04-10T11:13:52.120Z,14.96
2023-04-10T11:16:20.755Z,14.43
2023-04-10T11:18:59.340Z,16.19
2023-04-10T11:22:00.190Z,17.57
2023-04-10T11:24:27.079Z,19.96
2023-04-10T11:26:53.992Z,18.18
2023-04-10T11:29:26.660Z,17.84
2023-04-10T11:32:00.991Z,17.35
2023-04-10T11:34:28.479Z,17.28
2023-04-10T11:36:55.297Z,16.53
2023-04-10T11:39:22.301Z,16.16
2023-04-10T11:41:51.397Z,17.06
2023-04-10T11:44:35.211Z,17.31
2023-04-10T11:47:02.100Z,18.10
2023-04-10T11:49:32.770Z,19.28
2023-04-10T11:51:59.695Z,19.41
2023-04-10T11:54:28.410Z,18.87
2023-04-10T11:57:01.143Z,20.18
2023-04-10T11:59:29.355Z,20.56
2023-04-10T12:02:07.843Z,22.48
2023-04-10T12:04:35.526Z,20.87
2023-04-10T12:07:02.656Z,21.08
2023-04-10T12:09:32.339Z,21.21
2023-04-10T12:12:03.360Z,22.35
2023-04-10T12:14:36.907Z,22.50
2023-04-10T12:17:05.502Z,21.87
2023-04-10T12:19:33.768Z,21.15
2023-04-10T12:22:02.857Z,22.85
2023-04-10T12:24:49.607Z,22.96
2023-04-10T12:27:23.916Z,22.48
2023-04-10T12:29:53.124Z,21.53
2023-04-10T12:32:20.682Z,22.51
2023-04-10T12:34:52.056Z,23.31
2023-04-10T12:37:19.923Z,23.72
2023-04-10T12:39:46.856Z,23.90
2023-04-10T12:42:22.904Z,23.89
2023-04-10T12:44:51.442Z,22.58
2023-04-10T12:47:18.187Z,22.29
2023-04-10T12:50:08.701Z,22.46
2023-04-10T12:52:36.365Z,23.87
2023-04-10T12:55:15.413Z,23.36
2023-04-10T12:57:44.412Z,22.97
2023-04-10T13:00:13.740Z,22.41
2023-04-10T13:02:41.381Z,22.63
2023-04-10T13:05:09.119Z,23.35
2023-04-10T13:07:37.297Z,23.56
2023-04-10T13:10:05.839Z,24.30
2023-04-10T13:12:34.729Z,23.86
2023-04-10T13:15:01.931Z,23.55
2023-04-10T13:17:28.880Z,23.75
2023-04-10T13:19:55.716Z,24.25
2023-04-10T13:22:22.602Z,23.74
2023-04-10T13:24:49.387Z,24.65
2023-04-10T13:27:16.183Z,24.68
2023-04-10T13:29:43.386Z,25.24
2023-04-10T13:32:10.747Z,25.05
2023-04-10T13:34:37.623Z,24.80
2023-04-10T13:37:04.632Z,25.00
2023-04-10T13:39:31.825Z,24.74
2023-04-10T13:41:59.466Z,25.29
2023-04-10T13:44:26.533Z,25.02
2023-04-10T13:46:53.808Z,25.42
2023-04-10T13:49:22.090Z,25.13
2023-04-10T13:51:49.078Z,25.86
2023-04-10T13:54:18.840Z,26.20
2023-04-10T13:56:46.436Z,26.65
2023-04-10T13:59:13.698Z,26.70
2023-04-10T14:01:40.969Z,26.16
2023-04-10T14:04:08.361Z,26.58
2023-04-10T14:06:35.301Z,26.54
2023-04-10T14:09:02.162Z,26.39
2023-04-10T14:11:28.911Z,26.37
2023-04-10T14:13:55.776Z,27.52
2023-04-10T14:16:22.516Z,27.24
2023-04-10T14:18:49.225Z,27.38
2023-04-10T14:21:16.554Z,27.71
2023-04-10T14:23:43.572Z,27.96
2023-04-10T14:26:10.287Z,28.38
2023-04-10T14:28:37.012Z,27.75
2023-04-10T14:31:04.838Z,27.32
2023-04-10T14:33:31.801Z,27.92
2023-04-10T14:35:58.609Z,27.73
2023-04-10T14:38:25.333Z,27.36
2023-04-10T14:40:53.738Z,28.57
2023-04-10T14:45:47.734Z,28.73
2023-04-10T14:48:14.792Z,28.76
2023-04-10T14:50:41.627Z,28.30
2023-04-10T14:53:09.958Z,28.94
2023-04-10T14:55:37.351Z,29.43
2023-04-10T14:58:06.576Z,30.23
2023-04-10T15:00:33.267Z,30.49
2023-04-10T15:03:00.406Z,31.52
2023-04-10T15:05:27.949Z,31.43
2023-04-10T15:07:55.143Z,32.10
2023-04-10T15:10:22.085Z,33.09
2023-04-10T15:12:48.862Z,32.72
2023-04-10T15:15:15.769Z,33.24
2023-04-10T15:17:42.603Z,32.99
2023-04-10T15:20:09.982Z,32.38
2023-04-10T15:22:36.715Z,31.98
2023-04-10T15:25:03.695Z,32.34
2023-04-10T15:27:30.663Z,32.45
2023-04-10T15:29:57.575Z,32.75
2023-04-10T15:32:24.347Z,32.05
2023-04-10T15:34:51.040Z,30.86
2023-04-10T15:37:17.705Z,30.86
2023-04-10T15:39:44.435Z,30.70
2023-04-10T15:42:11.180Z,30.24
2023-04-10T15:44:37.934Z,30.61
2023-04-10T15:47:04.706Z,30.96
2023-04-10T15:49:37.995Z,30.86
2023-04-10T15:52:08.532Z,30.55
2023-04-10T15:54:35.773Z,30.59
2023-04-10T15:57:03.533Z,30.35
2023-04-10T15:59:30.355Z,30.43
2023-04-10T16:01:57.226Z,30.91
2023-04-10T16:04:24.360Z,31.24
2023-04-10T16:06:51.294Z,31.25
2023-04-10T16:11:48.324Z,32.61
2023-04-10T16:14:15.073Z,32.40
2023-04-10T16:16:41.812Z,32.91
2023-04-10T16:19:09.816Z,33.19
2023-04-10T16:21:36.893Z,33.30
2023-04-10T16:24:04.202Z,33.15
2023-04-10T16:26:31.131Z,33.53
2023-04-10T16:28:57.850Z,33.33
2023-04-10T16:31:24.725Z,33.80
2023-04-10T16:33:51.394Z,33.45
2023-04-10T16:36:18.113Z,33.79
2023-04-10T16:38:45.250Z,34.03
2023-04-10T16:41:12.639Z,33.95
2023-04-10T16:43:39.545Z,35.08
2023-04-10T16:46:07.393Z,34.99
2023-04-10T16:48:36.185Z,35.24
2023-04-10T16:51:06.157Z,34.95
2023-04-10T16:53:35.715Z,35.21
2023-04-10T16:56:04.833Z,35.29
2023-04-10T16:58:33.805Z,36.15
2023-04-10T17:01:00.729Z,36.02
2023-04-10T17:03:27.625Z,36.64
2023-04-10T17:05:54.379Z,36.60
2023-04-10T17:08:21.082Z,37.14
2023-04-10T17:10:47.805Z,37.04
2023-04-10T17:13:14.638Z,36.88
2023-04-10T17:15:41.381Z,37.23
2023-04-10T17:18:08.408Z,37.48
2023-04-10T17:20:37.035Z,37.79
2023-04-10T17:23:03.980Z,37.23
2023-04-10T17:25:30.976Z,38.57
2023-04-10T17:27:57.987Z,38.60
2023-04-10T17:30:24.765Z,39.46
2023-04-10T17:32:51.605Z,39.50
2023-04-10T17:35:18.534Z,40.18
2023-04-10T17:37:45.412Z,41.14
2023-04-10T17:40:12.503Z,43.21
2023-04-10T17:42:39.262Z,42.82
2023-04-10T17:45:06.597Z,42.52
2023-04-10T17:47:33.390Z,42.51
2023-04-10T17:50:00.016Z,42.32
2023-04-10T17:52:26.742Z,43.33
2023-04-10T17:54:53.458Z,43.69
2023-04-10T17:57:20.157Z,43.13
2023-04-10T17:59:46.857Z,44.87
2023-04-10T18:02:13.561Z,46.08
2023-04-10T18:04:40.306Z,47.12
2023-04-10T18:07:07.034Z,45.86
2023-04-10T18:09:33.693Z,47.47
2023-04-10T18:12:01.501Z,46.52
2023-04-10T18:14:28.199Z,47.47
2023-04-10T18:16:55.091Z,48.49
2023-04-10T18:19:21.956Z,48.25
2023-04-10T18:21:49.270Z,50.03
2023-04-10T18:24:16.136Z,50.37
2023-04-10T18:26:43.084Z,50.34
2023-04-10T18:29:09.784Z,50.43
2023-04-10T18:31:36.564Z,52.43
2023-04-10T18:34:07.875Z,50.33
2023-04-10T18:36:35.520Z,51.06
2023-04-10T18:39:02.253Z,50.29
2023-04-10T18:41:28.995Z,50.21
2023-04-10T18:44:04.147Z,49.58
2023-04-10T18:46:32.531Z,48.92
2023-04-10T18:49:00.957Z,49.94
2023-04-10T18:51:28.326Z,49.38
2023-04-10T18:53:55.465Z,50.53
2023-04-10T18:56:22.799Z,49.44
2023-04-10T18:58:50.303Z,49.00
2023-04-10T19:01:20.199Z,49.04
2023-04-10T19:03:50.079Z,48.83
2023-04-10T19:06:23.651Z,49.18
2023-04-10T19:08:51.088Z,49.53
2023-04-10T19:11:18.632Z,49.61
2023-04-10T19:13:45.482Z,48.75
2023-04-10T19:16:19.059Z,49.54
2023-04-10T19:18:49.305Z,49.25
2023-04-10T19:21:16.051Z,49.43
2023-04-10T19:23:42.774Z,50.14
2023-04-10T19:26:09.798Z,49.33
2023-04-10T19:28:36.605Z,48.87
2023-04-10T19:31:03.338Z,48.40
2023-04-10T19:33:30.386Z,48.07
2023-04-10T19:35:58.251Z,48.43
2023-04-10T19:38:25.210Z,48.22
2023-04-10T19:40:51.996Z,48.03
2023-04-10T19:43:18.783Z,48.66
2023-04-10T19:45:45.813Z,48.39
2023-04-10T19:48:12.572Z,48.50
2023-04-10T19:50:39.338Z,48.79
2023-04-10T19:53:12.904Z,49.20
2023-04-10T19:55:42.707Z,48.98
2023-04-10T19:58:13.439Z,49.26
2023-04-10T20:00:47.825Z,48.62
2023-04-10T20:03:16.121Z,48.69
2023-04-10T20:05:43.012Z,49.08
2023-04-10T20:08:09.754Z,48.95
2023-04-10T20:10:36.715Z,48.53
2023-04-10T20:13:03.484Z,48.79
2023-04-10T20:15:30.185Z,48.63
2023-04-10T20:17:56.962Z,49.26
2023-04-10T20:20:23.719Z,48.91
2023-04-10T20:22:50.556Z,50.78
2023-04-10T20:25:17.238Z,50.72
2023-04-10T20:27:43.925Z,51.28
2023-04-10T20:30:10.929Z,51.12
2023-04-10T20:32:37.697Z,53.40
2023-04-10T20:35:04.794Z,55.34
2023-04-10T20:37:31.539Z,55.08
2023-04-10T20:39:58.435Z,55.84
2023-04-10T20:42:25.132Z,55.75
2023-04-10T20:44:51.860Z,57.41
2023-04-10T20:47:18.581Z,58.95
2023-04-10T20:49:47.801Z,59.14
2023-04-10T20:52:14.545Z,59.01
2023-04-10T20:54:41.317Z,59.08
2023-04-10T20:57:08.048Z,58.82
2023-04-10T20:59:36.042Z,58.25
2023-04-10T21:02:03.158Z,56.83
2023-04-10T21:04:30.029Z,57.25
2023-04-10T21:06:56.661Z,57.49
2023-04-10T21:09:23.365Z,58.23
2023-04-10T21:11:50.117Z,58.34
2023-04-10T21:14:16.881Z,57.77
2023-04-10T21:16:45.756Z,58.83
2023-04-10T21:19:12.549Z,57.06
2023-04-10T21:21:42.030Z,57.34
2023-04-10T21:24:08.747Z,57.06
2023-04-10T21:26:35.527Z,55.07
2023-04-10T21:29:02.273Z,56.26
2023-04-10T21:31:29.045Z,55.04
2023-04-10T21:33:55.811Z,55.05
2023-04-10T21:36:22.494Z,55.17
2023-04-10T21:38:49.198Z,54.68
2023-04-10T21:41:15.951Z,56.13
2023-04-10T21:43:43.192Z,56.81
2023-04-10T21:46:10.051Z,57.21
2023-04-10T21:48:36.988Z,57.48
2023-04-10T21:51:03.903Z,57.09
2023-04-10T21:53:30.767Z,57.04
2023-04-10T21:55:57.978Z,56.40
2023-04-10T21:58:24.663Z,56.98
2023-04-10T22:00:54.533Z,58.58
2023-04-10T22:03:22.232Z,63.17
2023-04-10T22:05:50.162Z,68.79
2023-04-10T22:08:19.822Z,72.86
2023-04-10T22:10:50.435Z,74.29
2023-04-10T22:13:29.741Z,76.99
2023-04-10T22:15:57.676Z,76.27
2023-04-10T22:18:24.336Z,77.19
2023-04-10T22:20:51.099Z,78.22
2023-04-10T22:23:17.746Z,77.71
2023-04-10T22:25:44.466Z,77.91
2023-04-10T22:28:11.187Z,77.64
2023-04-10T22:30:37.880Z,77.42
2023-04-10T22:33:04.663Z,76.10
2023-04-10T22:35:31.454Z,74.92
2023-04-10T22:37:58.258Z,76.38
2023-04-10T22:40:25.471Z,74.58
2023-04-10T22:42:53.330Z,74.37
2023-04-10T22:45:20.280Z,75.15
2023-04-10T22:47:47.137Z,75.96
2023-04-10T22:50:13.885Z,75.60
2023-04-10T22:52:40.633Z,77.10
2023-04-10T22:55:07.931Z,76.12
2023-04-10T22:57:35.837Z,75.44
2023-04-10T23:00:02.653Z,74.26
2023-04-10T23:02:31.334Z,73.92
2023-04-10T23:04:58.442Z,72.41
2023-04-10T23:07:25.884Z,73.49
2023-04-10T23:09:52.602Z,74.26
2023-04-10T23:12:19.347Z,73.73
2023-04-10T23:14:46.094Z,73.35
2023-04-10T23:17:12.854Z,72.83
2023-04-10T23:19:39.580Z,72.10
2023-04-10T23:22:07.247Z,71.38
2023-04-10T23:24:34.019Z,71.89
2023-04-10T23:27:00.690Z,72.40
2023-04-10T23:29:30.886Z,71.93
2023-04-10T23:32:00.666Z,72.05
2023-04-10T23:34:27.525Z,72.42
2023-04-10T23:36:54.646Z,72.37
2023-04-10T23:39:21.329Z,73.12
2023-04-10T23:41:48.105Z,72.03
2023-04-10T23:44:14.768Z,72.60
2023-04-10T23:46:41.528Z,72.10
2023-04-10T23:49:08.405Z,73.13
2023-04-10T23:51:35.074Z,75.20
2023-04-10T23:54:01.812Z,75.91
2023-04-10T23:56:29.405Z,75.82
2023-04-10T23:58:56.419Z,75.45
